Milwaukee, Wisconsin
Current Conditions -  °F | °C
As of 5:52 AM on Saturday 20 Dec 2014 (Local Time) from KMKE Reporting Station
Overcast Overcast  
Wind Chill: -3°   Ceiling: 7000
Heat Index: -3°   Visibility: 10mi
Dew Point: -8°   Wind: 3mph
Humidity: 69%   Direction: 290°WNW
Pressure: 30.27"   Gusts: NA
Location:  43.04°N, 87.91°W
Report Text: KMKE 201152Z 29003KT 10SM FEW020 OVC070 M03/M08 A3027 RMK AO2 SLP260 T10281078 11022 21028 56004
Loading
Personal Weather Stations






























Interactive Weather Map New forecast layout! Learn more

10-Day Weather Forecast

Advertisements
Track Severe Weather on mobile